Time;durP1;ratioP1;P1;durP2;ratioP2;P2;SDS_P1;SDS_P2;PMS_P1;PMS_P2;Temp;Humidity;BMP_temperature;BMP_pressure;BME280_temperature;BME280_humidity;BME280_pressure;Samples;Min_cycle;Max_cycle;Signal;HPM_P1;HPM_P2
2021/03/12 00:01:13;;;;;;;5.95;2.58;;;;;;;3.48;85.11;97167.95;1731171;81;21587;-86
2021/03/12 00:03:40;;;;;;;10.53;2.92;;;;;;;3.47;85.09;97174.83;1731041;81;21184;-87
2021/03/12 00:06:09;;;;;;;7.47;2.70;;;;;;;3.46;85.12;97171.06;1733866;81;22173;-86
2021/03/12 00:08:43;;;;;;;8.63;3.40;;;;;;;3.46;85.17;97180.09;1729906;81;21220;-86
2021/03/12 00:11:11;;;;;;;7.90;2.65;;;;;;;3.46;85.12;97182.67;1734476;81;21207;-86
2021/03/12 00:13:39;;;;;;;6.15;2.75;;;;;;;3.43;85.08;97181.10;1736098;81;21181;-86
2021/03/12 00:16:07;;;;;;;7.20;2.20;;;;;;;3.40;85.09;97177.42;1730308;81;21017;-86
2021/03/12 00:18:45;;;;;;;;;;;;;;;3.40;85.12;97188.20;1736969;81;21381;-85
2021/03/12 00:21:14;;;;;;;5.62;2.17;;;;;;;3.39;85.13;97178.78;1728488;81;20214;-86
2021/03/12 00:23:42;;;;;;;10.90;2.10;;;;;;;3.36;85.14;97192.25;1734085;81;21586;-85
2021/03/12 00:26:10;;;;;;;5.83;1.92;;;;;;;3.35;85.18;97202.18;1744319;81;21718;-85
2021/03/12 00:28:38;;;;;;;9.78;2.40;;;;;;;3.34;85.18;97197.95;1744441;81;21034;-85
2021/03/12 00:31:06;;;;;;;7.67;1.65;;;;;;;3.32;85.30;97208.81;1742007;81;21405;-85
2021/03/12 00:33:34;;;;;;;5.87;1.80;;;;;;;3.27;85.22;97212.11;1728650;81;21743;-85
2021/03/12 00:36:01;;;;;;;6.30;1.90;;;;;;;3.28;85.26;97211.21;1732214;81;21183;-85
2021/03/12 00:38:28;;;;;;;5.55;1.80;;;;;;;3.29;85.34;97210.28;1737227;81;21071;-85
2021/03/12 00:41:05;;;;;;;8.45;2.12;;;;;;;3.26;85.29;97210.46;1738891;81;21068;-85
2021/03/12 00:43:32;;;;;;;6.08;2.05;;;;;;;3.24;85.32;97216.16;1742302;81;21215;-85
2021/03/12 00:46:04;;;;;;;9.13;2.20;;;;;;;3.23;85.37;97218.37;1734013;81;21194;-85
2021/03/12 00:48:31;;;;;;;5.95;1.67;;;;;;;3.21;85.37;97221.95;1743252;81;21245;-84
2021/03/12 00:51:00;;;;;;;5.58;1.87;;;;;;;3.17;85.35;97226.47;1733436;81;21183;-84
2021/03/12 00:53:27;;;;;;;7.95;1.90;;;;;;;3.16;85.40;97217.05;1737111;81;21761;-84
2021/03/12 00:55:54;;;;;;;11.75;2.00;;;;;;;3.14;85.41;97224.07;1739700;81;22221;-84
2021/03/12 00:58:24;;;;;;;9.03;2.22;;;;;;;3.12;85.45;97227.19;1739797;81;21263;-84
2021/03/12 01:00:51;;;;;;;8.30;2.55;;;;;;;3.11;85.50;97230.23;1739013;81;21219;-84
2021/03/12 01:03:19;;;;;;;6.95;1.65;;;;;;;3.09;85.46;97228.66;1735466;81;21195;-84
2021/03/12 01:05:46;;;;;;;8.48;1.77;;;;;;;3.07;85.47;97233.06;1739551;81;21601;-84
2021/03/12 01:08:13;;;;;;;7.53;2.30;;;;;;;3.06;85.49;97239.14;1736622;81;22137;-84
2021/03/12 01:10:42;;;;;;;9.78;1.92;;;;;;;3.06;85.47;97237.39;1739899;81;21105;-84
2021/03/12 01:13:09;;;;;;;9.80;1.90;;;;;;;3.05;85.43;97242.62;1739459;81;21226;-84
2021/03/12 01:15:37;;;;;;;8.55;1.50;;;;;;;3.02;85.47;97251.81;1737357;81;21214;-83
2021/03/12 01:18:05;;;;;;;9.85;2.12;;;;;;;3.04;85.50;97246.95;1730565;81;21208;-83
2021/03/12 01:20:37;;;;;;;10.65;2.25;;;;;;;3.04;85.47;97243.55;1737171;81;21280;-83
2021/03/12 01:23:05;;;;;;;8.53;2.05;;;;;;;3.02;85.45;97242.80;1742065;81;21181;-83
2021/03/12 01:25:42;;;;;;;11.45;2.55;;;;;;;3.00;85.44;97242.89;1747168;81;21629;-82
2021/03/12 01:28:10;;;;;;;10.60;1.67;;;;;;;3.00;85.47;97244.65;1740550;81;27129;-82
2021/03/12 01:30:42;;;;;;;9.48;2.50;;;;;;;3.00;85.44;97253.67;1743602;81;21188;-82
2021/03/12 01:33:09;;;;;;;7.72;1.50;;;;;;;2.99;85.45;97248.13;1741267;80;22172;-82
2021/03/12 01:35:37;;;;;;;10.25;2.42;;;;;;;3.00;85.48;97251.09;1743836;81;21255;-82
2021/03/12 01:38:05;;;;;;;10.72;2.35;;;;;;;3.01;85.45;97254.03;1744815;81;21208;-82
2021/03/12 01:40:35;;;;;;;8.08;2.10;;;;;;;3.01;85.39;97256.61;1739106;80;21187;-82
2021/03/12 01:43:04;;;;;;;12.58;2.40;;;;;;;2.98;85.37;97255.50;1742481;81;21187;-82
2021/03/12 01:45:42;;;;;;;9.70;2.37;;;;;;;3.00;85.44;97267.85;1746607;80;21306;-82
2021/03/12 01:48:12;;;;;;;;;;;;;;;3.01;85.42;97270.33;1754451;81;21175;-82
2021/03/12 01:50:42;;;;;;;12.35;2.35;;;;;;;3.00;85.41;97275.58;1760537;80;20197;-82
2021/03/12 01:53:11;;;;;;;4.35;1.82;;;;;;;2.99;85.35;97279.06;1762974;80;21002;-82
2021/03/12 01:55:39;;;;;;;10.48;2.62;;;;;;;2.99;85.43;97281.64;1762518;80;21148;-82
2021/03/12 01:58:07;;;;;;;9.00;2.10;;;;;;;2.99;85.41;97281.64;1743520;80;21834;-82
2021/03/12 02:00:34;;;;;;;;;;;;;;;2.99;85.41;97284.21;1754178;80;21088;-82
2021/03/12 02:03:03;;;;;;;9.53;2.17;;;;;;;2.97;85.40;97287.33;1745113;80;20589;-82
2021/03/12 02:05:30;;;;;;;14.03;2.52;;;;;;;2.95;85.39;97285.31;1761993;80;21250;-82
2021/03/12 02:07:58;;;;;;;6.42;1.75;;;;;;;2.95;85.41;97291.30;1735910;81;22056;-82
2021/03/12 02:10:28;;;;;;;11.10;2.62;;;;;;;2.95;85.42;97288.72;1743241;81;22520;-82
2021/03/12 02:13:09;;;;;;;7.78;1.95;;;;;;;2.96;85.41;97292.12;1767224;80;21709;-82
2021/03/12 02:15:49;;;;;;;6.92;1.85;;;;;;;2.95;85.38;97302.89;1741657;81;21733;-82
2021/03/12 02:18:24;;;;;;;8.38;2.10;;;;;;;2.95;85.31;97300.78;1765916;80;21621;-82
2021/03/12 02:20:57;;;;;;;8.23;2.33;;;;;;;2.94;85.35;97301.67;1732365;81;21212;-82
2021/03/12 02:23:41;;;;;;;12.03;2.05;;;;;;;2.91;85.37;97299.66;1748836;80;21359;-82
2021/03/12 02:26:17;;;;;;;10.28;2.47;;;;;;;2.94;85.42;97305.55;1755605;80;21259;-82
2021/03/12 02:28:47;;;;;;;9.45;1.82;;;;;;;2.94;85.37;97300.39;1739957;80;21187;-82
2021/03/12 02:31:14;;;;;;;10.20;2.05;;;;;;;2.96;85.43;97303.26;1722272;81;21089;-82
2021/03/12 02:33:42;;;;;;;10.30;2.65;;;;;;;2.98;85.37;97305.77;1743560;81;21077;-83
2021/03/12 02:36:10;;;;;;;13.13;2.45;;;;;;;2.98;85.33;97296.28;1749944;81;21501;-83
2021/03/12 02:38:40;;;;;;;10.40;2.02;;;;;;;2.99;85.34;97306.95;1740075;81;21668;-83
2021/03/12 02:41:08;;;;;;;10.88;2.35;;;;;;;3.00;85.31;97309.09;1745699;81;21255;-83
2021/03/12 02:43:37;;;;;;;7.00;1.80;;;;;;;3.02;85.37;97304.20;1742798;81;21251;-83
2021/03/12 02:46:05;;;;;;;10.58;2.20;;;;;;;3.02;85.28;97299.51;1742157;81;21243;-83
2021/03/12 02:48:33;;;;;;;11.93;2.27;;;;;;;3.01;85.27;97312.03;1744389;80;21438;-83
2021/03/12 02:51:05;;;;;;;9.40;2.37;;;;;;;3.00;85.20;97309.09;1742313;81;21223;-83
2021/03/12 02:53:35;;;;;;;12.90;2.37;;;;;;;2.99;85.25;97303.55;1749204;81;21025;-83
2021/03/12 02:56:03;;;;;;;8.23;2.08;;;;;;;3.00;85.28;97310.38;1747760;81;21573;-83
2021/03/12 02:58:32;;;;;;;16.45;3.17;;;;;;;3.02;85.32;97314.98;1750858;81;21202;-83
2021/03/12 03:01:05;;;;;;;12.07;2.02;;;;;;;3.02;85.27;97318.84;1748206;81;21215;-82
2021/03/12 03:03:34;;;;;;;9.10;2.05;;;;;;;3.02;85.25;97316.27;1742665;81;21182;-82
2021/03/12 03:06:05;;;;;;;7.72;1.95;;;;;;;3.02;85.32;97312.39;1727229;82;21181;-83
2021/03/12 03:08:34;;;;;;;13.20;2.02;;;;;;;3.05;85.29;97322.53;1736152;81;21575;-83
2021/03/12 03:11:07;;;;;;;10.13;2.42;;;;;;;3.05;85.29;97325.97;1755341;79;21233;-83
2021/03/12 03:13:39;;;;;;;11.65;2.47;;;;;;;3.05;85.28;97330.27;1744660;81;21285;-82
2021/03/12 03:16:08;;;;;;;8.53;2.02;;;;;;;3.05;85.26;97335.43;1748228;81;21965;-83
2021/03/12 03:18:38;;;;;;;10.43;1.98;;;;;;;3.05;85.25;97338.00;1746466;81;21053;-82
2021/03/12 03:21:08;;;;;;;9.65;2.37;;;;;;;3.06;85.25;97339.69;1740214;81;21626;-82
2021/03/12 03:23:39;;;;;;;11.00;2.37;;;;;;;3.04;85.26;97331.20;1741960;81;21191;-83
2021/03/12 03:26:08;;;;;;;12.37;1.95;;;;;;;3.06;85.25;97337.11;1744159;81;21541;-83
2021/03/12 03:28:35;;;;;;;10.38;2.00;;;;;;;3.06;85.28;97344.84;1751071;81;20995;-82
2021/03/12 03:31:04;;;;;;;10.40;2.40;;;;;;;3.06;85.27;97337.11;1747958;81;21224;-83
2021/03/12 03:33:33;;;;;;;9.48;2.22;;;;;;;3.06;85.29;97344.84;1744817;81;21632;-83
2021/03/12 03:36:02;;;;;;;10.25;2.00;;;;;;;3.06;85.24;97347.42;1755165;81;21210;-83
2021/03/12 03:38:31;;;;;;;9.28;2.33;;;;;;;3.06;85.23;97347.42;1749230;81;21618;-83
2021/03/12 03:41:06;;;;;;;10.53;2.05;;;;;;;3.05;85.22;97341.44;1752277;81;21172;-82
2021/03/12 03:43:42;;;;;;;14.47;2.58;;;;;;;3.06;85.19;97348.25;1733852;81;21654;-82
2021/03/12 03:46:11;;;;;;;8.83;1.92;;;;;;;3.07;85.30;97352.94;1752391;81;21620;-82
2021/03/12 03:48:39;;;;;;;9.53;2.10;;;;;;;3.06;85.21;97350.00;1768367;80;21169;-82
2021/03/12 03:51:14;;;;;;;9.85;1.98;;;;;;;3.07;85.22;97355.05;1732390;81;22110;-82
2021/03/12 03:53:43;;;;;;;9.83;2.25;;;;;;;3.08;85.28;97350.73;1766192;80;21099;-82
2021/03/12 03:56:16;;;;;;;15.83;2.95;;;;;;;3.07;85.20;97363.25;1742867;80;22299;-83
2021/03/12 03:58:45;;;;;;;10.85;3.02;;;;;;;3.07;85.28;97363.25;1770678;79;21203;-82
2021/03/12 04:01:15;;;;;;;11.00;2.65;;;;;;;3.05;85.25;97361.20;1765628;80;21136;-83
2021/03/12 04:03:44;;;;;;;6.42;1.95;;;;;;;3.06;85.31;97373.20;1774060;80;22441;-83
2021/03/12 04:06:11;;;;;;;11.28;2.80;;;;;;;3.07;85.29;97369.70;1768191;80;21207;-83
2021/03/12 04:08:39;;;;;;;9.95;2.45;;;;;;;3.07;85.29;97365.37;1764028;80;25051;-83
2021/03/12 04:11:07;;;;;;;15.08;2.85;;;;;;;3.09;85.30;97374.32;1770438;80;21163;-83
2021/03/12 04:13:34;;;;;;;8.40;2.22;;;;;;;3.08;85.29;97379.09;1750702;80;21175;-83
2021/03/12 04:16:02;;;;;;;8.48;2.60;;;;;;;3.08;85.24;97373.50;1716330;81;22185;-83
2021/03/12 04:18:29;;;;;;;8.80;2.05;;;;;;;3.08;85.31;97371.35;1745249;80;21052;-83
2021/03/12 04:20:57;;;;;;;;;;;;;;;3.09;85.27;97374.32;1749567;80;22354;-83
2021/03/12 04:23:25;;;;;;;14.18;2.45;;;;;;;3.08;85.24;97368.77;1747929;81;20613;-84
2021/03/12 04:25:52;;;;;;;;;;;;;;;3.07;85.33;97376.14;1735534;81;21221;-83
2021/03/12 04:28:20;;;;;;;13.05;2.95;;;;;;;3.06;85.28;97378.36;1730520;81;21141;-82
2021/03/12 04:30:48;;;;;;;15.28;2.95;;;;;;;3.06;85.32;97376.61;1733021;81;20974;-81
2021/03/12 04:33:16;;;;;;;;;;;;;;;3.07;85.30;97379.55;1735914;81;21630;-83
2021/03/12 04:35:44;;;;;;;11.93;2.10;;;;;;;3.09;85.32;97391.08;1735606;81;20242;-84
2021/03/12 04:38:12;;;;;;;11.60;2.92;;;;;;;3.07;85.32;97388.58;1704279;82;26732;-84
2021/03/12 04:40:40;;;;;;;12.70;2.40;;;;;;;3.08;85.32;97397.99;1727569;81;21249;-82
2021/03/12 04:43:08;;;;;;;13.53;2.95;;;;;;;3.08;85.35;97399.72;1734596;81;21080;-83
2021/03/12 04:45:36;;;;;;;10.95;3.15;;;;;;;3.08;85.31;97402.29;1729259;81;21246;-83
2021/03/12 04:48:05;;;;;;;9.80;2.72;;;;;;;3.08;85.34;97401.00;1732688;82;21136;-83
2021/03/12 04:50:33;;;;;;;11.03;2.65;;;;;;;3.08;85.31;97407.45;1728296;81;21191;-83
2021/03/12 04:53:00;;;;;;;8.40;2.30;;;;;;;3.08;85.32;97416.47;1730214;81;21192;-83
2021/03/12 04:55:28;;;;;;;12.10;3.77;;;;;;;3.06;85.28;97413.17;1731048;81;21220;-83
2021/03/12 04:57:55;;;;;;;;;;;;;;;3.02;85.29;97413.77;1739472;82;21116;-83
2021/03/12 05:00:23;;;;;;;12.45;2.65;;;;;;;3.03;85.38;97419.78;1727790;81;20237;-83
2021/03/12 05:02:51;;;;;;;9.50;2.65;;;;;;;3.04;85.38;97420.14;1727791;81;21220;-82
2021/03/12 05:05:18;;;;;;;14.95;3.05;;;;;;;3.04;85.40;97425.30;1734615;81;21212;-82
2021/03/12 05:07:46;;;;;;;11.40;3.47;;;;;;;3.03;85.39;97419.78;1732220;81;21230;-83
2021/03/12 05:10:13;;;;;;;9.40;2.85;;;;;;;3.05;85.41;97432.11;1730161;81;21276;-83
2021/03/12 05:12:40;;;;;;;8.33;2.87;;;;;;;3.06;85.41;97424.77;1732234;81;21787;-83
2021/03/12 05:17:46;;;;;;;9.58;2.72;;;;;;;3.10;85.45;97433.98;1803362;78;22755;-81
2021/03/12 05:20:13;;;;;;;10.88;2.92;;;;;;;3.06;85.41;97435.91;1747308;80;21017;-81
2021/03/12 05:22:41;;;;;;;13.13;2.95;;;;;;;3.06;85.41;97440.23;1770854;80;22004;-81
2021/03/12 05:25:10;;;;;;;12.68;3.60;;;;;;;3.06;85.45;97445.39;1769418;80;21106;-81
2021/03/12 05:27:37;;;;;;;11.75;3.67;;;;;;;3.07;85.44;97444.47;1770710;80;21041;-81
2021/03/12 05:30:06;;;;;;;13.70;3.52;;;;;;;3.09;85.55;97450.38;1761782;78;21669;-82
2021/03/12 05:32:33;;;;;;;12.18;3.70;;;;;;;3.10;85.57;97442.55;1768601;80;21013;-82
2021/03/12 05:35:00;;;;;;;8.33;2.95;;;;;;;3.08;85.47;97452.14;1733657;81;22252;-82
2021/03/12 05:37:27;;;;;;;9.55;3.90;;;;;;;3.07;85.49;97452.20;1711820;82;21089;-83
2021/03/12 05:39:54;;;;;;;8.85;3.37;;;;;;;3.07;85.55;97457.36;1712132;81;21029;-82
2021/03/12 05:42:22;;;;;;;12.93;3.80;;;;;;;3.08;85.53;97453.42;1710566;82;21202;-82
2021/03/12 05:44:52;;;;;;;8.88;3.42;;;;;;;3.08;85.54;97459.02;1722191;82;21689;-82
2021/03/12 05:47:19;;;;;;;12.28;3.33;;;;;;;3.09;85.57;97458.13;1712802;82;21309;-82
2021/03/12 05:49:46;;;;;;;6.20;3.10;;;;;;;3.06;85.52;97457.00;1711249;82;21227;-82
2021/03/12 05:52:13;;;;;;;12.47;3.95;;;;;;;3.05;85.51;97466.91;1717963;82;24482;-83
2021/03/12 05:54:46;;;;;;;10.90;3.25;;;;;;;3.05;85.62;97472.07;1716334;82;28355;-83
2021/03/12 05:57:14;;;;;;;11.12;3.42;;;;;;;3.05;85.57;97474.64;1721250;82;21191;-84
2021/03/12 05:59:41;;;;;;;7.62;2.92;;;;;;;3.05;85.63;97482.38;1721491;82;21842;-84
2021/03/12 06:02:09;;;;;;;10.40;3.65;;;;;;;3.08;85.72;97497.69;1720775;82;21315;-84
2021/03/12 06:04:36;;;;;;;7.50;2.90;;;;;;;3.11;85.70;97484.66;1712809;82;21037;-84
2021/03/12 06:07:03;;;;;;;8.58;3.27;;;;;;;3.14;85.71;97490.95;1718395;82;21603;-85
2021/03/12 06:09:30;;;;;;;7.47;3.58;;;;;;;3.18;85.70;97491.14;1714823;82;21740;-85
2021/03/12 06:11:57;;;;;;;10.35;3.30;;;;;;;3.22;85.74;97492.66;1718154;82;21219;-85
2021/03/12 06:14:55;;;;;;;11.43;3.72;;;;;;;3.29;85.73;97486.25;1713903;82;21049;-85
2021/03/12 06:17:47;;;;;;;14.15;3.80;;;;;;;3.39;85.77;97501.22;1684008;83;21250;-84
2021/03/12 06:20:19;;;;;;;13.50;4.10;;;;;;;3.42;85.65;97506.22;1678371;84;21214;-83
2021/03/12 06:22:57;;;;;;;10.43;4.03;;;;;;;3.36;85.62;97505.66;1678944;83;21722;-80
2021/03/12 06:28:20;;;;;;;14.55;5.65;;;;;;;3.43;85.69;97515.64;1788316;78;22736;-80
2021/03/12 06:30:49;;;;;;;8.58;3.55;;;;;;;3.39;85.78;97511.54;1763708;80;21583;-80
2021/03/12 06:33:34;;;;;;;14.18;3.75;;;;;;;3.46;85.86;97515.47;1767136;80;21642;-80
2021/03/12 06:36:06;;;;;;;10.55;3.65;;;;;;;3.54;85.75;97515.89;1769796;80;21044;-80
2021/03/12 06:38:33;;;;;;;10.23;3.50;;;;;;;3.60;85.66;97512.97;1769633;79;21042;-81
2021/03/12 06:41:00;;;;;;;9.30;3.40;;;;;;;3.76;85.92;97518.97;1765855;80;20985;-80
2021/03/12 06:43:29;;;;;;;10.38;3.30;;;;;;;3.89;85.67;97526.02;1766287;80;21788;-81
2021/03/12 06:46:01;;;;;;;10.03;3.10;;;;;;;3.93;85.54;97537.87;1770784;79;22128;-81
2021/03/12 06:48:55;;;;;;;6.80;3.00;;;;;;;3.94;85.38;97539.52;1766691;79;21086;-79
2021/03/12 06:51:22;;;;;;;5.83;3.05;;;;;;;3.96;85.51;97537.69;1679426;83;21191;-77
2021/03/12 06:53:51;;;;;;;7.75;2.77;;;;;;;4.08;85.58;97543.45;1683172;83;28758;-76
2021/03/12 06:56:29;;;;;;;8.05;2.72;;;;;;;4.20;85.54;97546.66;1714059;83;21295;-78
2021/03/12 06:59:03;;;;;;;5.97;2.70;;;;;;;4.31;85.44;97549.08;1723841;81;21228;-78
2021/03/12 07:01:51;;;;;;;8.73;2.83;;;;;;;4.32;85.17;97562.39;1723101;81;21045;-78
2021/03/12 07:04:19;;;;;;;9.38;3.02;;;;;;;4.32;85.30;97563.22;1643702;86;21099;-78
2021/03/12 07:06:50;;;;;;;;;;;;;;;4.28;85.18;97566.88;1651661;85;21240;-79
2021/03/12 07:09:18;;;;;;;7.12;3.20;;;;;;;4.26;85.25;97566.98;1652633;86;20284;-77
2021/03/12 07:11:56;;;;;;;7.72;3.35;;;;;;;4.26;85.23;97574.73;1647813;85;22686;-77
2021/03/12 07:14:25;;;;;;;6.05;2.75;;;;;;;4.18;85.19;97576.91;1648043;85;21189;-77
2021/03/12 07:16:53;;;;;;;5.95;3.00;;;;;;;4.13;85.29;97580.20;1651497;85;21211;-79
2021/03/12 07:19:23;;;;;;;;;;;;;;;4.07;85.20;97579.25;1634709;85;21108;-84
2021/03/12 07:22:12;;;;;;;7.80;3.30;;;;;;;4.00;85.21;97579.20;1649971;85;20288;-80
2021/03/12 07:24:40;;;;;;;7.05;2.90;;;;;;;3.93;85.25;97594.67;1667989;84;22333;-79
2021/03/12 07:27:29;;;;;;;;;;;;;;;3.89;85.34;97590.57;1631338;86;21246;-80
2021/03/12 07:30:02;;;;;;;5.60;2.37;;;;;;;3.93;85.53;97592.09;1650375;85;20182;-79
2021/03/12 07:32:33;;;;;;;8.65;3.27;;;;;;;4.02;85.53;97596.73;1665176;84;21227;-80
2021/03/12 07:35:24;;;;;;;6.40;3.10;;;;;;;4.20;85.97;97607.37;1676580;84;21251;-80
2021/03/12 07:37:54;;;;;;;7.42;2.20;;;;;;;4.60;85.96;97615.47;1704457;82;21209;-80
2021/03/12 07:40:43;;;;;;;6.12;2.55;;;;;;;4.60;85.12;97619.34;1707446;82;21203;-80
2021/03/12 07:43:12;;;;;;;5.55;2.85;;;;;;;4.46;84.98;97622.70;1622720;86;21229;-80
2021/03/12 07:45:42;;;;;;;3.25;1.77;;;;;;;4.35;85.05;97621.64;1624191;86;21233;-80
2021/03/12 07:48:11;;;;;;;4.60;2.42;;;;;;;4.25;85.03;97640.20;1623549;86;21655;-78
2021/03/12 07:50:39;;;;;;;8.50;2.47;;;;;;;4.13;85.08;97640.89;1623540;87;22131;-82
2021/03/12 07:53:09;;;;;;;6.08;2.60;;;;;;;4.09;85.28;97638.55;1621375;86;21305;-79
2021/03/12 07:55:45;;;;;;;6.92;2.70;;;;;;;4.12;85.44;97636.66;1598201;88;22314;-78
2021/03/12 07:58:35;;;;;;;4.05;2.15;;;;;;;4.15;85.32;97644.70;1596491;88;21206;-78
2021/03/12 08:01:06;;;;;;;7.15;2.20;;;;;;;4.14;85.34;97632.22;1614926;87;21238;-75
2021/03/12 08:03:42;;;;;;;4.08;2.27;;;;;;;4.27;85.58;97645.30;1596628;88;22257;-80
2021/03/12 08:09:32;;;;;;;7.97;2.98;;;;;;;4.55;85.37;97642.02;1592485;88;21268;-83
2021/03/12 08:12:00;;;;;;;5.80;2.55;;;;;;;4.73;85.52;97641.91;1566970;90;21255;-82
2021/03/12 08:14:27;;;;;;;4.42;2.15;;;;;;;5.12;85.76;97651.23;1588285;88;21258;-86
2021/03/12 08:17:04;;;;;;;6.58;2.47;;;;;;;5.37;85.14;97651.10;1561755;90;22994;-83
2021/03/12 08:19:35;;;;;;;3.10;2.12;;;;;;;5.37;84.65;97649.81;1604611;87;21354;-80
2021/03/12 08:22:29;;;;;;;7.47;2.50;;;;;;;5.26;84.50;97657.38;1560893;90;21313;-81
2021/03/12 08:25:05;;;;;;;5.15;2.27;;;;;;;5.14;84.41;97661.05;1759675;78;22472;-83
2021/03/12 08:28:00;;;;;;;8.13;2.62;;;;;;;4.99;84.60;97649.48;1732583;80;21208;-79
2021/03/12 08:30:53;;;;;;;6.10;2.55;;;;;;;4.94;84.83;97653.61;1685397;81;21350;-83
2021/03/12 08:33:26;;;;;;;8.10;2.85;;;;;;;4.97;84.90;97662.95;1669878;83;21207;-82
2021/03/12 08:35:56;;;;;;;6.10;2.65;;;;;;;5.09;85.11;97658.36;1667598;83;21155;-81
2021/03/12 08:38:29;;;;;;;7.28;2.47;;;;;;;5.11;84.80;97657.34;1669871;84;21226;-83
2021/03/12 08:41:00;;;;;;;3.67;2.40;;;;;;;5.04;84.50;97662.52;1667782;84;21612;-83
2021/03/12 08:43:31;;;;;;;6.12;2.55;;;;;;;4.88;84.54;97661.73;1671464;84;21629;-82
2021/03/12 08:46:23;;;;;;;5.83;2.15;;;;;;;4.97;85.13;97663.78;1786070;78;22365;-83
2021/03/12 08:48:55;;;;;;;5.67;2.90;;;;;;;5.13;85.04;97669.73;1751590;80;21052;-83
2021/03/12 08:51:29;;;;;;;6.72;2.52;;;;;;;5.26;85.05;97676.78;1752906;80;21188;-80
2021/03/12 08:53:59;;;;;;;8.43;2.47;;;;;;;5.40;84.83;97687.16;1739519;80;21233;-79
2021/03/12 08:56:36;;;;;;;4.45;1.90;;;;;;;5.35;84.19;97681.44;1743077;80;21021;-83
2021/03/12 08:59:05;;;;;;;4.50;2.50;;;;;;;5.10;84.01;97685.44;1749004;81;20989;-81
2021/03/12 09:01:39;;;;;;;5.45;2.37;;;;;;;4.86;84.23;97689.42;1749094;80;21056;-81
2021/03/12 09:04:07;;;;;;;5.03;2.12;;;;;;;4.71;84.38;97696.30;1745332;80;21259;-79
2021/03/12 09:06:36;;;;;;;6.65;2.42;;;;;;;4.66;84.71;97700.88;1748614;80;23360;-80
2021/03/12 09:09:07;;;;;;;6.40;3.00;;;;;;;4.79;85.01;97699.72;1744662;80;21011;-81
2021/03/12 09:11:58;;;;;;;8.48;4.22;;;;;;;5.15;85.39;97698.09;1786498;78;28044;-80
2021/03/12 09:14:25;;;;;;;5.67;2.55;;;;;;;5.57;85.19;97697.37;1766152;79;20992;-78
2021/03/12 09:17:00;;;;;;;8.58;3.15;;;;;;;5.95;84.61;97700.73;1767674;80;21177;-80
2021/03/12 09:19:29;;;;;;;4.85;2.92;;;;;;;6.25;85.08;97708.86;1772382;78;21082;-82
2021/03/12 09:21:56;;;;;;;3.92;2.35;;;;;;;6.57;84.47;97700.83;1766479;80;21161;-81
2021/03/12 09:24:23;;;;;;;7.05;3.20;;;;;;;6.57;83.89;97689.98;1772337;79;21015;-81
2021/03/12 09:26:51;;;;;;;8.48;2.80;;;;;;;6.47;83.66;97706.59;1763386;79;21084;-80
2021/03/12 09:29:18;;;;;;;4.65;2.20;;;;;;;6.35;83.54;97711.70;1771287;80;21198;-79
2021/03/12 09:31:45;;;;;;;3.92;2.42;;;;;;;6.32;83.80;97704.95;1768155;80;21784;-80
2021/03/12 09:34:18;;;;;;;6.33;2.50;;;;;;;6.23;83.56;97716.71;1769668;80;21029;-76
2021/03/12 09:36:47;;;;;;;6.67;2.47;;;;;;;6.07;83.56;97721.63;1769769;79;21158;-81
2021/03/12 09:39:20;;;;;;;5.90;2.87;;;;;;;5.87;83.62;97738.35;1773621;79;21226;-81
2021/03/12 09:44:36;;;;;;;12.18;5.12;;;;;;;5.63;83.81;97717.32;1792098;78;22795;-80
2021/03/12 09:47:09;;;;;;;8.23;4.28;;;;;;;5.58;83.97;97740.45;1771095;80;21057;-80
2021/03/12 09:49:40;;;;;;;8.65;5.60;;;;;;;5.67;83.89;97748.59;1770813;79;21199;-80
2021/03/12 09:52:11;;;;;;;11.88;4.22;;;;;;;5.52;83.66;97747.75;1769412;79;21013;-80
2021/03/12 09:54:41;;;;;;;8.38;3.22;;;;;;;5.29;83.41;97755.09;1768053;80;21623;-80
2021/03/12 09:57:17;;;;;;;8.08;3.45;;;;;;;5.09;83.62;97754.06;1741670;80;22063;-80
2021/03/12 09:59:50;;;;;;;8.70;4.70;;;;;;;5.02;83.87;97760.05;1766835;79;21566;-80
2021/03/12 10:02:19;;;;;;;8.83;3.98;;;;;;;4.89;83.48;97762.48;1769114;79;21209;-80
2021/03/12 10:05:02;;;;;;;4.20;2.47;;;;;;;4.80;83.78;97764.75;1770810;80;21753;-80
2021/03/12 10:07:40;;;;;;;6.33;2.60;;;;;;;4.76;83.73;97765.82;1765173;80;21009;-80
2021/03/12 10:10:27;;;;;;;6.10;2.70;;;;;;;4.81;83.88;97765.12;1770282;80;21167;-80
2021/03/12 10:12:56;;;;;;;7.87;3.50;;;;;;;4.85;83.75;97762.75;1771018;79;21581;-79
2021/03/12 10:16:13;;;;;;;9.25;3.70;;;;;;;5.05;83.98;97768.94;1835159;77;22761;-75
2021/03/12 10:18:45;;;;;;;6.95;3.55;;;;;;;5.13;84.03;97767.22;1804768;78;21027;-76
2021/03/12 10:21:13;;;;;;;6.22;3.22;;;;;;;5.33;84.19;97771.27;1801378;78;21806;-81
2021/03/12 10:23:40;;;;;;;;;;;;;;;5.52;84.06;97779.64;1801107;78;21100;-79
2021/03/12 10:26:08;;;;;;;7.47;2.98;;;;;;;5.77;84.10;97767.83;1803721;77;20166;-82
2021/03/12 10:28:35;;;;;;;5.50;3.02;;;;;;;5.94;83.93;97772.91;1799723;78;21013;-83
2021/03/12 10:31:02;;;;;;;9.78;3.42;;;;;;;6.15;83.78;97778.54;1794156;78;21206;-83
2021/03/12 10:33:32;;;;;;;8.83;3.02;;;;;;;6.35;83.73;97774.73;1806204;78;21193;-84
2021/03/12 10:36:05;;;;;;;5.60;2.42;;;;;;;6.45;82.86;97778.44;1796932;78;21068;-79
2021/03/12 10:38:36;;;;;;;8.43;3.58;;;;;;;6.40;82.82;97780.48;1800992;78;21123;-80
2021/03/12 10:41:19;;;;;;;10.72;3.40;;;;;;;6.33;82.85;97779.20;1801922;77;22412;-77
2021/03/12 10:44:04;;;;;;;6.15;2.92;;;;;;;6.22;82.60;97798.45;1765870;80;21878;-76
2021/03/12 10:49:08;;;;;;;7.60;3.17;;;;;;;5.89;82.42;97811.16;1828059;77;22491;-81
2021/03/12 10:51:41;;;;;;;8.53;3.22;;;;;;;5.76;82.66;97815.38;1794921;78;21181;-81
2021/03/12 10:54:12;;;;;;;6.65;2.33;;;;;;;5.73;82.61;97815.55;1796779;78;21948;-80
2021/03/12 10:56:49;;;;;;;12.00;2.70;;;;;;;5.73;82.56;97810.38;1805742;78;21827;-79
2021/03/12 10:59:16;;;;;;;5.83;2.10;;;;;;;5.65;82.52;97828.11;1738555;80;21202;-81
2021/03/12 11:01:46;;;;;;;10.13;2.70;;;;;;;5.56;82.31;97825.12;1752263;80;21193;-81
2021/03/12 11:04:14;;;;;;;9.43;2.83;;;;;;;5.42;82.52;97819.91;1749018;80;21091;-80
2021/03/12 11:06:42;;;;;;;8.50;2.50;;;;;;;5.43;82.53;97816.38;1759182;81;21277;-81
2021/03/12 11:09:10;;;;;;;9.10;2.62;;;;;;;5.43;82.52;97826.73;1753393;81;21650;-79
2021/03/12 11:11:38;;;;;;;10.03;2.52;;;;;;;5.41;81.95;97828.59;1759494;81;21073;-79
2021/03/12 11:14:05;;;;;;;7.35;2.40;;;;;;;5.43;81.86;97840.97;1748140;80;21047;-77
2021/03/12 11:16:33;;;;;;;12.43;2.60;;;;;;;5.49;81.92;97834.18;1752577;80;21052;-81
2021/03/12 11:19:01;;;;;;;8.85;2.72;;;;;;;5.68;81.93;97825.34;1736439;81;21224;-80
2021/03/12 11:21:28;;;;;;;11.08;2.70;;;;;;;5.81;81.59;97823.72;1735097;81;21642;-80
2021/03/12 11:23:56;;;;;;;;;;;;;;;5.88;81.61;97825.05;1748868;80;21625;-79
2021/03/12 11:26:24;;;;;;;;;;;;;;;5.83;81.06;97834.83;1742869;81;20320;-79
2021/03/12 11:28:51;;;;;;;12.07;3.20;;;;;;;5.83;81.15;97845.19;1736782;80;20564;-81
2021/03/12 11:31:19;;;;;;;7.65;2.40;;;;;;;5.78;81.31;97860.16;1736285;80;21287;-79
2021/03/12 11:33:46;;;;;;;6.65;2.08;;;;;;;5.75;80.58;97849.97;1764581;79;21176;-81
2021/03/12 11:36:14;;;;;;;10.05;2.37;;;;;;;5.86;80.29;97847.59;1731679;81;21198;-81
2021/03/12 11:38:43;;;;;;;10.70;2.33;;;;;;;5.95;80.48;97865.22;1745912;80;20993;-82
2021/03/12 11:41:11;;;;;;;12.28;2.45;;;;;;;6.12;80.46;97858.22;1750731;80;21170;-78
2021/03/12 11:46:14;;;;;;;8.85;2.25;;;;;;;6.47;79.95;97846.59;1793235;78;22093;-79
2021/03/12 11:48:42;;;;;;;14.33;2.15;;;;;;;6.48;78.76;97863.80;1766998;79;21024;-81
2021/03/12 11:51:09;;;;;;;8.25;2.20;;;;;;;6.47;79.11;97862.15;1765689;79;22287;-78
2021/03/12 11:53:56;;;;;;;10.50;2.15;;;;;;;6.49;78.96;97880.19;1767838;80;21661;-77
2021/03/12 11:56:23;;;;;;;12.10;2.52;;;;;;;6.44;78.89;97883.08;1723085;81;21169;-77
2021/03/12 11:58:51;;;;;;;11.40;3.40;;;;;;;6.36;78.68;97877.52;1722936;81;21114;-78
2021/03/12 12:01:19;;;;;;;15.35;3.02;;;;;;;6.23;78.08;97890.81;1728150;81;21017;-77
2021/03/12 12:03:46;;;;;;;16.67;3.52;;;;;;;6.09;78.24;97886.91;1721858;81;21428;-76
2021/03/12 12:06:14;;;;;;;10.25;2.20;;;;;;;6.08;78.38;97893.00;1720703;81;21023;-78
2021/03/12 12:08:41;;;;;;;11.88;3.30;;;;;;;6.05;77.93;97903.94;1725498;81;21066;-75
2021/03/12 12:14:31;;;;;;;8.15;2.33;;;;;;;5.89;77.52;97903.58;1675672;81;21224;-74
2021/03/12 12:16:59;;;;;;;9.83;1.98;;;;;;;5.85;76.34;97900.30;1681176;82;22597;-74
2021/03/12 12:19:26;;;;;;;10.68;2.30;;;;;;;5.75;74.86;97891.41;1693842;82;21091;-74